Time;durP1;ratioP1;P1;durP2;ratioP2;P2;SDS_P1;SDS_P2;PMS_P1;PMS_P2;Temp;Humidity;BMP_temperature;BMP_pressure;BME280_temperature;BME280_humidity;BME280_pressure;Samples;Min_cycle;Max_cycle;Signal;HPM_P1;HPM_P2
2023/07/29 00:00:09;;;;;;;;;15.00;15.00;;;;;23.94;36.25;99007.16;5068656;28;9570;-76
2023/07/29 00:03:02;;;;;;;;;15.00;13.00;;;;;23.95;35.97;99011.53;5090743;28;8867;-76
2023/07/29 00:05:31;;;;;;;;;12.80;12.80;;;;;23.94;35.28;99008.97;5082066;28;8843;-76
2023/07/29 00:08:00;;;;;;;;;12.20;11.80;;;;;23.92;35.64;99006.44;5070772;28;8838;-77
2023/07/29 00:10:32;;;;;;;;;12.20;12.20;;;;;23.90;35.41;99010.22;5070877;28;8854;-77
2023/07/29 00:13:01;;;;;;;;;14.20;14.20;;;;;23.90;36.41;99012.91;5070730;28;8870;-76
2023/07/29 00:15:29;;;;;;;;;12.80;12.60;;;;;23.83;35.66;99015.28;5034224;28;8854;-76
2023/07/29 00:17:58;;;;;;;;;16.00;14.40;;;;;23.81;35.89;99014.56;5090877;28;8949;-76
2023/07/29 00:20:27;;;;;;;;;13.60;11.80;;;;;23.79;35.29;99005.78;5046342;28;8858;-77
2023/07/29 00:22:58;;;;;;;;;12.40;12.40;;;;;23.75;35.54;99007.00;5070451;28;8920;-78
2023/07/29 00:25:26;;;;;;;;;15.40;15.40;;;;;23.70;35.79;99002.03;5070492;28;8865;-77
2023/07/29 00:27:57;;;;;;;;;14.20;13.20;;;;;23.66;35.54;99014.03;5070563;28;9691;-77
2023/07/29 00:30:26;;;;;;;;;15.60;14.40;;;;;23.63;35.48;99010.75;5069014;28;8854;-76
2023/07/29 00:32:55;;;;;;;;;14.20;14.20;;;;;23.57;35.44;99004.91;5075210;28;9027;-77
2023/07/29 00:35:24;;;;;;;;;11.80;11.80;;;;;23.48;35.77;99016.38;5090663;28;8864;-77
2023/07/29 00:37:53;;;;;;;;;15.40;15.40;;;;;23.48;36.00;99013.69;5090875;28;8847;-78
2023/07/29 00:40:23;;;;;;;;;15.60;14.80;;;;;23.44;36.06;99016.78;5086067;28;8847;-78
2023/07/29 00:42:52;;;;;;;;;18.20;15.00;;;;;23.48;35.96;99015.53;5068603;28;8885;-77
2023/07/29 00:45:26;;;;;;;;;12.80;12.80;;;;;23.53;36.03;99013.34;5068984;28;8858;-76
2023/07/29 00:47:55;;;;;;;;;14.80;13.80;;;;;23.53;36.01;99013.34;5067782;28;8865;-77
2023/07/29 00:50:24;;;;;;;;;11.60;10.60;;;;;23.54;35.72;99007.84;5071271;28;8950;-77
2023/07/29 00:52:53;;;;;;;;;13.40;10.00;;;;;23.56;35.66;99016.63;5088894;28;8867;-77
2023/07/29 00:55:25;;;;;;;;;11.60;11.00;;;;;23.56;35.74;99011.28;5070021;28;8937;-77
2023/07/29 00:57:55;;;;;;;;;13.80;13.20;;;;;23.58;35.81;99003.06;5085614;28;8852;-77
2023/07/29 01:00:25;;;;;;;;;14.20;14.20;;;;;23.60;36.01;99008.31;5068500;28;8844;-76
2023/07/29 01:02:55;;;;;;;;;14.00;14.00;;;;;23.56;35.82;99005.91;5068374;28;8963;-75
2023/07/29 01:05:30;;;;;;;;;13.00;13.00;;;;;23.60;35.94;98998.41;5085213;28;9718;-77
2023/07/29 01:08:08;;;;;;;;;11.80;11.80;;;;;23.60;35.81;98995.72;5077016;28;8843;-76
2023/07/29 01:10:46;;;;;;;;;15.00;14.80;;;;;23.57;35.59;98990.66;5084304;28;8850;-77
2023/07/29 01:13:25;;;;;;;;;14.00;14.00;;;;;23.55;35.66;98982.72;5085239;28;8857;-77
2023/07/29 01:15:59;;;;;;;;;13.60;13.60;;;;;23.48;35.54;98984.19;5067653;28;8972;-76
2023/07/29 01:18:31;;;;;;;;;15.00;14.00;;;;;23.41;35.79;98991.03;5068195;28;8965;-75
2023/07/29 01:21:03;;;;;;;;;14.40;14.40;;;;;23.39;35.54;98979.59;5068814;28;8862;-76
2023/07/29 01:23:35;;;;;;;;;13.40;13.40;;;;;23.32;35.13;98987.31;5075844;28;8836;-76
2023/07/29 01:26:04;;;;;;;;;13.60;13.60;;;;;23.30;35.43;98983.91;5088083;28;8868;-76
2023/07/29 01:28:34;;;;;;;;;14.20;14.20;;;;;23.29;35.24;98984.88;5073105;28;8854;-75
2023/07/29 01:31:11;;;;;;;;;8.60;7.80;;;;;23.33;35.39;98990.84;5067731;28;8858;-77
2023/07/29 01:33:44;;;;;;;;;14.60;14.00;;;;;23.22;35.01;98991.72;5069016;28;8839;-76
2023/07/29 01:36:19;;;;;;;;;14.80;14.00;;;;;23.22;35.32;98991.72;5067676;28;8870;-76
2023/07/29 01:38:52;;;;;;;;;15.80;14.80;;;;;23.16;35.34;98992.22;5072239;28;8843;-77
2023/07/29 01:41:22;;;;;;;;;16.20;15.80;;;;;23.13;35.37;98992.50;5089090;28;8868;-76
2023/07/29 01:43:54;;;;;;;;;16.20;16.20;;;;;23.07;35.71;98983.13;5082006;28;8853;-76
2023/07/29 01:46:22;;;;;;;;;14.40;13.40;;;;;23.11;36.23;98992.63;5068964;28;8917;-77
2023/07/29 01:48:51;;;;;;;;;14.60;13.00;;;;;23.12;36.18;98983.59;5067555;28;8877;-76
2023/07/29 01:51:20;;;;;;;;;14.80;12.60;;;;;23.12;35.63;98980.06;5068310;28;8915;-77
2023/07/29 01:53:50;;;;;;;;;13.80;13.60;;;;;23.09;35.38;98981.19;5033758;28;8847;-76
2023/07/29 01:56:19;;;;;;;;;12.80;11.60;;;;;23.09;34.95;98970.44;5067796;28;8866;-78
2023/07/29 01:58:56;;;;;;;;;12.20;11.00;;;;;23.07;35.55;98974.22;5087578;28;8832;-77
2023/07/29 02:01:25;;;;;;;;;18.00;14.60;;;;;23.09;35.97;98972.25;5068202;28;8930;-76
2023/07/29 02:03:55;;;;;;;;;14.60;14.60;;;;;23.07;35.75;98976.91;5047439;28;8888;-78
2023/07/29 02:06:26;;;;;;;;;15.40;13.60;;;;;23.05;36.46;98974.34;5047509;28;8838;-77
2023/07/29 02:08:56;;;;;;;;;12.00;12.00;;;;;23.05;36.18;98970.81;5047380;28;8884;-77
2023/07/29 02:11:27;;;;;;;;;14.60;14.60;;;;;23.02;36.72;98966.56;5047522;28;8837;-76
2023/07/29 02:13:57;;;;;;;;;13.40;12.60;;;;;23.02;36.91;98973.75;5075154;28;8887;-76
2023/07/29 02:16:26;;;;;;;;;1.00;1.00;;;;;23.01;37.09;98975.56;5087570;28;8844;-77
2023/07/29 02:18:55;;;;;;;;;14.40;13.40;;;;;23.00;38.07;98965.84;5087496;28;8840;-77
2023/07/29 02:21:24;;;;;;;;;14.40;14.40;;;;;23.02;38.59;98973.75;5053198;28;8886;-77
2023/07/29 02:23:53;;;;;;;;;12.20;12.20;;;;;22.99;38.68;98974.84;5087018;28;8956;-76
2023/07/29 02:26:23;;;;;;;;;12.00;11.40;;;;;22.95;37.62;98966.19;5083984;28;9790;-77
2023/07/29 02:28:52;;;;;;;;;12.20;11.80;;;;;22.93;36.63;98968.16;5068422;28;9594;-77
2023/07/29 02:31:22;;;;;;;;;9.40;9.40;;;;;22.85;35.87;98964.41;5084230;28;8840;-79
2023/07/29 02:33:53;;;;;;;;;11.80;11.80;;;;;22.81;35.46;98966.47;5087110;28;9528;-78
2023/07/29 02:36:22;;;;;;;;;8.40;8.00;;;;;22.80;35.77;98967.44;5068316;28;8837;-76
2023/07/29 02:38:51;;;;;;;;;11.40;10.80;;;;;22.77;35.94;98955.16;5064155;28;8848;-77
2023/07/29 02:41:19;;;;;;;;;11.80;10.00;;;;;22.76;35.78;98957.94;5066171;28;8841;-76
2023/07/29 02:43:51;;;;;;;;;10.00;9.20;;;;;22.75;35.49;98958.91;5065802;28;8856;-75
2023/07/29 02:46:20;;;;;;;;;10.60;9.00;;;;;22.71;35.91;98965.50;5049818;28;8936;-76
2023/07/29 02:48:50;;;;;;;;;8.00;8.00;;;;;22.71;35.57;98963.69;5066305;28;9627;-77
2023/07/29 02:51:19;;;;;;;;;8.40;8.20;;;;;22.70;35.44;98961.13;5086558;28;8908;-77
2023/07/29 02:53:48;;;;;;;;;7.00;7.00;;;;;22.70;35.15;98969.16;5065875;28;8916;-78
2023/07/29 02:56:16;;;;;;;;;8.40;8.40;;;;;22.69;35.56;98973.66;5029202;28;8891;-78
2023/07/29 02:58:45;;;;;;;;;11.60;10.00;;;;;22.70;37.02;98974.53;5029072;28;8831;-76
2023/07/29 03:01:15;;;;;;;;;12.00;10.80;;;;;22.71;37.36;98977.09;5046101;28;8874;-78
2023/07/29 03:03:44;;;;;;;;;20.20;19.80;;;;;22.70;38.35;98975.38;4995528;28;9586;-78
2023/07/29 03:06:15;;;;;;;;;25.00;24.00;;;;;22.66;38.81;98971.22;5032260;28;8860;-77
2023/07/29 03:08:44;;;;;;;;;13.60;13.60;;;;;22.55;39.51;98971.25;5048955;28;8871;-78
2023/07/29 03:11:14;;;;;;;;;8.20;8.20;;;;;22.23;38.90;98974.63;4991306;28;8871;-78
2023/07/29 03:13:43;;;;;;;;;11.80;10.80;;;;;21.84;40.00;98979.41;5016510;28;8839;-77
2023/07/29 03:16:15;;;;;;;;;11.00;10.40;;;;;21.13;41.40;98984.72;5049533;28;8863;-77
2023/07/29 03:18:50;;;;;;;;;10.80;10.80;;;;;21.17;41.82;98986.19;5049462;28;8869;-77
2023/07/29 03:21:19;;;;;;;;;8.80;8.20;;;;;21.16;41.25;98987.19;5049462;28;8892;-76
2023/07/29 03:23:48;;;;;;;;;10.20;10.20;;;;;21.31;41.10;98987.84;5015972;28;8842;-77
2023/07/29 03:26:16;;;;;;;;;11.00;10.20;;;;;21.44;41.01;98985.94;5069369;28;8862;-78
2023/07/29 03:28:45;;;;;;;;;10.80;10.20;;;;;21.58;41.12;98992.09;5052866;28;9767;-78
2023/07/29 03:31:15;;;;;;;;;9.80;9.40;;;;;21.70;40.96;98985.00;5058349;28;8891;-76
2023/07/29 03:33:45;;;;;;;;;13.00;12.80;;;;;21.82;41.25;98990.28;5071390;28;8836;-78
2023/07/29 03:36:15;;;;;;;;;12.40;12.40;;;;;21.94;41.46;98992.97;5037148;28;8836;-77
2023/07/29 03:38:45;;;;;;;;;14.00;12.20;;;;;22.01;41.86;98992.38;5087472;28;8840;-77
2023/07/29 03:41:14;;;;;;;;;9.00;9.00;;;;;22.10;41.37;98993.47;5063471;28;8902;-77
2023/07/29 03:43:42;;;;;;;;;11.20;11.20;;;;;22.16;41.13;98995.66;5090608;28;8875;-77
2023/07/29 03:46:11;;;;;;;;;14.40;14.40;;;;;22.20;40.65;98996.28;5091078;28;8922;-77
2023/07/29 03:48:43;;;;;;;;;26.40;24.40;;;;;22.23;40.13;98990.69;5070251;28;8875;-77
2023/07/29 03:51:12;;;;;;;;;12.00;12.00;;;;;22.25;39.75;98995.94;5070022;28;8858;-77
2023/07/29 03:53:41;;;;;;;;;10.20;10.20;;;;;22.29;39.72;98989.38;5070169;28;8834;-78
2023/07/29 03:56:09;;;;;;;;;11.00;11.00;;;;;22.31;39.72;98998.16;5070220;28;8870;-78
2023/07/29 03:58:38;;;;;;;;;12.80;12.00;;;;;22.36;40.21;98998.63;5107488;28;8919;-77
2023/07/29 04:01:07;;;;;;;;;11.00;11.00;;;;;22.37;39.87;98994.97;5089913;28;8887;-77
2023/07/29 04:03:36;;;;;;;;;14.00;12.40;;;;;22.42;40.04;98990.97;5077143;28;9076;-77
2023/07/29 04:06:07;;;;;;;;;36.25;32.00;;;;;22.46;40.07;98994.25;5069958;28;8858;-77
2023/07/29 04:08:36;;;;;;;;;16.60;15.60;;;;;22.51;39.84;98992.06;5070248;28;8939;-76
2023/07/29 04:11:05;;;;;;;;;13.00;11.80;;;;;22.50;39.85;98994.84;5086417;28;8855;-78
2023/07/29 04:13:34;;;;;;;;;8.60;8.60;;;;;22.48;38.55;99002.16;5042356;28;8851;-77
2023/07/29 04:16:02;;;;;;;;;12.20;12.00;;;;;22.49;39.91;98998.53;5069647;28;8870;-77
2023/07/29 04:18:31;;;;;;;;;12.20;11.60;;;;;22.51;40.28;98991.22;5053012;28;8858;-77
2023/07/29 04:21:01;;;;;;;;;9.00;9.00;;;;;22.34;38.80;98998.75;5068895;28;8850;-75
2023/07/29 04:23:31;;;;;;;;;15.40;14.40;;;;;22.20;40.45;98998.94;5068503;28;8877;-77
2023/07/29 04:26:00;;;;;;;;;11.60;10.80;;;;;21.84;38.78;98998.16;5035231;28;9612;-78
2023/07/29 04:28:29;;;;;;;;;13.40;13.40;;;;;21.83;40.93;99001.81;5051455;28;8854;-77
2023/07/29 04:30:57;;;;;;;;;15.80;14.00;;;;;21.82;41.62;99000.97;5059472;28;8842;-76
2023/07/29 04:33:26;;;;;;;;;57.75;45.00;;;;;21.82;42.47;98998.28;5071497;28;8830;-79
2023/07/29 04:35:55;;;;;;;;;21.00;19.20;;;;;21.62;43.60;99007.81;5055327;28;8875;-77
2023/07/29 04:38:31;;;;;;;;;16.40;16.40;;;;;21.63;43.94;99008.66;5088405;28;8853;-78
2023/07/29 04:41:01;;;;;;;;;14.80;14.80;;;;;21.54;44.12;99015.56;5088068;28;8849;-76
2023/07/29 04:43:32;;;;;;;;;15.80;14.20;;;;;21.51;43.44;99012.25;5050894;28;8912;-77
2023/07/29 04:46:01;;;;;;;;;13.00;13.00;;;;;21.70;43.09;99007.25;5073192;28;9560;-77
2023/07/29 04:48:30;;;;;;;;;11.00;11.00;;;;;21.84;42.33;99004.38;5088088;28;8826;-77
2023/07/29 04:51:00;;;;;;;;;11.40;10.60;;;;;21.98;41.89;99008.66;5071015;28;8853;-77
2023/07/29 04:53:29;;;;;;;;;8.80;8.80;;;;;22.11;41.65;99013.91;5037790;28;8846;-77
2023/07/29 04:55:58;;;;;;;;;11.00;10.80;;;;;22.23;41.36;99020.97;5033908;28;8862;-77
2023/07/29 04:58:29;;;;;;;;;11.00;11.00;;;;;22.33;40.69;99028.31;5067167;28;8834;-77
2023/07/29 05:00:59;;;;;;;;;13.00;12.00;;;;;22.40;40.62;99022.38;5069893;28;8846;-76
2023/07/29 05:03:28;;;;;;;;;11.60;11.60;;;;;22.50;40.49;99022.50;5076075;28;8839;-77
2023/07/29 05:05:57;;;;;;;;;9.00;9.00;;;;;22.60;40.24;99023.47;5081545;28;9013;-77
2023/07/29 05:08:27;;;;;;;;;13.40;12.60;;;;;22.71;40.26;99021.75;5062105;28;8842;-76
2023/07/29 05:10:56;;;;;;;;;14.00;11.80;;;;;22.74;40.10;99025.03;5060843;28;8979;-77
2023/07/29 05:13:25;;;;;;;;;12.40;12.40;;;;;22.73;40.15;99028.72;5054137;28;8862;-77
2023/07/29 05:15:56;;;;;;;;;17.60;16.60;;;;;22.78;39.78;99031.84;5070593;28;8871;-78
2023/07/29 05:18:25;;;;;;;;;18.40;16.60;;;;;22.83;39.74;99033.31;5076387;28;8987;-77
2023/07/29 05:20:54;;;;;;;;;12.80;12.80;;;;;22.86;38.67;99039.28;5107254;28;10085;-78
2023/07/29 05:23:24;;;;;;;;;12.80;12.20;;;;;22.86;39.22;99033.91;5090400;28;8867;-75
2023/07/29 05:25:53;;;;;;;;;11.00;11.00;;;;;22.87;38.44;99041.00;5056787;28;8871;-76
2023/07/29 05:28:22;;;;;;;;;13.60;13.60;;;;;23.03;39.20;99037.94;5062083;28;8851;-77
2023/07/29 05:30:50;;;;;;;;;11.80;11.00;;;;;23.14;39.51;99042.44;5086361;28;8858;-77
2023/07/29 05:33:21;;;;;;;;;12.40;12.40;;;;;23.25;38.89;99038.91;5073598;28;8915;-75
2023/07/29 05:35:50;;;;;;;;;15.40;14.60;;;;;23.15;38.77;99045.00;5064811;28;8889;-74
2023/07/29 05:38:19;;;;;;;;;13.40;13.40;;;;;22.87;38.79;99049.03;5044013;28;8852;-73
2023/07/29 05:40:49;;;;;;;;;12.20;12.20;;;;;23.00;38.30;99060.50;5080110;28;8847;-72
2023/07/29 05:43:18;;;;;;;;;14.40;14.40;;;;;23.17;38.18;99055.63;5062413;28;8880;-71
2023/07/29 05:45:46;;;;;;;;;15.20;15.20;;;;;23.43;37.82;99050.78;5046038;28;8847;-72
2023/07/29 05:48:15;;;;;;;;;12.00;9.20;;;;;23.00;37.36;99057.81;5065256;28;8827;-71
2023/07/29 05:50:47;;;;;;;;;11.40;11.40;;;;;22.99;38.06;99056.09;5057175;28;9590;-68
2023/07/29 05:53:16;;;;;;;;;10.80;10.80;;;;;23.18;37.79;99062.66;5080644;28;8846;-70
2023/07/29 05:55:45;;;;;;;;;11.40;11.00;;;;;22.88;39.05;99063.28;5066517;28;8860;-70
2023/07/29 05:58:14;;;;;;;;;16.40;14.20;;;;;22.61;40.48;99060.00;5066957;28;8879;-77
2023/07/29 06:00:43;;;;;;;;;12.40;12.40;;;;;22.14;41.83;99066.34;5068658;28;9596;-74
2023/07/29 06:03:12;;;;;;;;;11.40;11.40;;;;;22.12;41.76;99068.31;5050486;28;8852;-77
2023/07/29 06:05:40;;;;;;;;;15.40;13.80;;;;;22.08;42.32;99073.03;5066901;28;8984;-72
2023/07/29 06:08:11;;;;;;;;;14.20;13.20;;;;;22.20;41.46;99066.75;5065892;28;9001;-66
2023/07/29 06:10:40;;;;;;;;;9.00;7.80;;;;;22.36;41.15;99071.78;5072789;28;9565;-70
2023/07/29 06:13:09;;;;;;;;;13.00;12.00;;;;;22.28;41.40;99076.91;5067049;28;8846;-70
2023/07/29 06:15:37;;;;;;;;;12.80;12.20;;;;;22.02;42.04;99085.06;5067011;28;8880;-73
2023/07/29 06:18:07;;;;;;;;;11.00;11.00;;;;;21.97;42.18;99084.53;5085644;28;8888;-72
2023/07/29 06:20:35;;;;;;;;;16.00;16.00;;;;;21.76;43.61;99092.38;5067636;28;8958;-70
2023/07/29 06:23:05;;;;;;;;;12.20;11.20;;;;;21.91;42.72;99089.53;5064605;28;8836;-70
2023/07/29 06:25:35;;;;;;;;;11.60;11.60;;;;;22.41;42.07;99083.00;5062634;28;8886;-70
2023/07/29 06:28:04;;;;;;;;;9.60;9.60;;;;;22.78;40.86;99082.78;5064592;28;8882;-70
2023/07/29 06:30:33;;;;;;;;;14.60;12.40;;;;;22.89;39.70;99090.00;5080349;28;8930;-72
2023/07/29 06:33:03;;;;;;;;;14.80;13.20;;;;;22.33;41.29;99093.44;5068252;28;8929;-70
2023/07/29 06:35:32;;;;;;;;;11.20;10.60;;;;;22.47;41.76;99095.06;5064227;28;8863;-70
2023/07/29 06:38:01;;;;;;;;;11.00;11.00;;;;;22.39;42.27;99095.66;5067275;28;8820;-70
2023/07/29 06:40:30;;;;;;;;;13.80;13.40;;;;;22.61;42.74;99092.13;5067309;28;8826;-74
2023/07/29 06:43:00;;;;;;;;;14.40;12.80;;;;;22.80;41.64;99098.72;5095844;28;8862;-70
2023/07/29 06:45:29;;;;;;;;;16.20;16.20;;;;;23.29;41.06;99099.34;5085245;28;9086;-70
2023/07/29 06:47:58;;;;;;;;;13.00;13.00;;;;;23.68;40.76;99108.66;5073705;28;8868;-72
2023/07/29 06:50:26;;;;;;;;;13.00;13.00;;;;;23.90;39.22;99104.19;5071977;28;8919;-74
2023/07/29 06:52:55;;;;;;;;;11.60;11.60;;;;;24.15;39.08;99093.13;5071344;28;8838;-72
2023/07/29 06:55:25;;;;;;;;;13.60;13.60;;;;;24.47;38.47;99099.38;5052972;28;8969;-73
2023/07/29 06:57:54;;;;;;;;;16.00;15.40;;;;;24.47;38.21;99097.56;5073986;28;8840;-72
2023/07/29 07:00:24;;;;;;;;;14.00;13.60;;;;;24.64;37.64;99104.16;5051325;28;8864;-72
2023/07/29 07:02:53;;;;;;;;;14.40;13.80;;;;;24.85;37.60;99103.28;5066223;28;8849;-70
2023/07/29 07:05:21;;;;;;;;;15.00;15.00;;;;;24.76;37.38;99096.03;5070806;28;8915;-72
2023/07/29 07:07:50;;;;;;;;;2.40;2.40;;;;;24.64;37.67;99095.22;5064127;28;8857;-70
2023/07/29 07:10:19;;;;;;;;;12.80;12.80;;;;;24.66;37.12;99091.44;5059814;28;8872;-70
2023/07/29 07:12:48;;;;;;;;;19.60;18.80;;;;;24.92;37.53;99083.81;5043332;28;8843;-70
2023/07/29 07:15:17;;;;;;;;;13.40;13.40;;;;;24.87;37.01;99087.88;5054079;28;8951;-73
2023/07/29 07:17:47;;;;;;;;;13.80;13.80;;;;;24.92;36.74;99099.94;5068465;28;8960;-71
2023/07/29 07:20:17;;;;;;;;;14.00;12.60;;;;;24.45;37.52;99104.91;5060917;28;8877;-69
2023/07/29 07:22:46;;;;;;;;;14.40;13.00;;;;;24.41;37.70;99116.88;5061725;28;8846;-72
2023/07/29 07:25:14;;;;;;;;;13.00;12.20;;;;;24.11;38.97;99110.44;5069326;28;8985;-72
2023/07/29 07:27:43;;;;;;;;;14.00;13.80;;;;;24.49;38.74;99117.09;5051404;28;8843;-73
2023/07/29 07:30:12;;;;;;;;;13.60;13.60;;;;;24.89;38.10;99112.81;5068675;28;8983;-72
2023/07/29 07:32:41;;;;;;;;;12.00;12.00;;;;;25.03;37.71;99114.25;5052043;28;8858;-73
2023/07/29 07:35:11;;;;;;;;;16.20;15.20;;;;;24.22;39.02;99106.00;5057448;28;8858;-77
2023/07/29 07:37:40;;;;;;;;;15.80;15.80;;;;;24.63;38.79;99110.50;5035267;28;8935;-78
2023/07/29 07:40:10;;;;;;;;;12.00;12.00;;;;;25.01;38.34;99114.38;5025984;28;8916;-79
2023/07/29 07:42:39;;;;;;;;;17.40;15.80;;;;;25.34;37.97;99112.41;5051253;28;8864;-79
2023/07/29 07:45:08;;;;;;;;;14.40;13.80;;;;;25.30;37.81;99114.50;5046071;28;8952;-79
2023/07/29 07:47:37;;;;;;;;;16.20;16.20;;;;;25.35;38.33;99105.19;5070637;28;8854;-79
2023/07/29 07:50:06;;;;;;;;;13.60;13.60;;;;;25.46;37.14;99108.59;5069689;28;8880;-78
2023/07/29 07:52:37;;;;;;;;;13.80;13.40;;;;;24.95;38.17;99116.78;5035789;28;8843;-79
2023/07/29 07:55:06;;;;;;;;;12.80;11.80;;;;;24.11;40.06;99120.31;5073848;28;8864;-78
2023/07/29 07:57:35;;;;;;;;;22.80;22.60;;;;;23.92;40.58;99118.31;5065319;28;8888;-77
2023/07/29 08:00:05;;;;;;;;;14.60;14.60;;;;;24.55;39.54;99110.34;5039368;28;8862;-79
2023/07/29 08:02:40;;;;;;;;;7.80;7.80;;;;;25.05;39.46;99109.59;5058034;28;8862;-79
2023/07/29 08:05:09;;;;;;;;;15.80;14.80;;;;;25.29;38.20;99111.94;5089049;28;8876;-77
2023/07/29 08:07:39;;;;;;;;;14.80;14.40;;;;;24.75;39.35;99105.91;5088472;28;8959;-70
2023/07/29 08:10:09;;;;;;;;;15.60;15.60;;;;;25.04;38.88;99111.44;5076870;28;8854;-73
2023/07/29 08:12:38;;;;;;;;;12.80;12.80;;;;;25.30;38.09;99116.31;5074326;28;8824;-74
2023/07/29 08:15:07;;;;;;;;;15.80;15.40;;;;;25.62;38.20;99109.91;5069784;28;8923;-74
2023/07/29 08:17:36;;;;;;;;;9.80;8.80;;;;;25.90;37.16;99110.94;5067597;28;9003;-72
2023/07/29 08:20:06;;;;;;;;;12.00;12.00;;;;;26.03;37.00;99103.44;5056455;28;8849;-74
2023/07/29 08:22:35;;;;;;;;;6.20;6.20;;;;;25.52;37.48;99109.91;5087632;28;9614;-73
2023/07/29 08:25:06;;;;;;;;;17.40;16.60;;;;;25.09;38.43;99106.47;5084943;28;8900;-72
2023/07/29 08:27:35;;;;;;;;;17.40;16.20;;;;;25.54;38.07;99102.53;5094640;28;8973;-72
2023/07/29 08:30:05;;;;;;;;;16.60;16.60;;;;;25.50;37.56;99098.41;5090467;28;8882;-71
2023/07/29 08:32:34;;;;;;;;;16.00;16.00;;;;;25.76;36.96;99085.28;5061382;28;8880;-70
2023/07/29 08:35:03;;;;;;;;;14.00;14.00;;;;;25.93;38.40;99096.34;5049336;28;9608;-71
2023/07/29 08:37:32;;;;;;;;;15.00;15.00;;;;;26.19;36.95;99089.41;5058157;28;8846;-72
2023/07/29 08:40:01;;;;;;;;;13.60;13.00;;;;;26.37;35.46;99089.50;5051141;28;9015;-72
2023/07/29 08:42:35;;;;;;;;;13.40;12.00;;;;;26.61;34.93;99096.28;5049239;28;8860;-72
2023/07/29 08:45:08;;;;;;;;;14.60;13.00;;;;;26.82;33.36;99093.38;5063908;28;8857;-71
2023/07/29 08:47:37;;;;;;;;;15.20;14.00;;;;;26.51;34.36;99090.91;5049505;28;8833;-72
2023/07/29 08:50:07;;;;;;;;;15.20;12.40;;;;;26.54;33.64;99092.47;5048316;28;8825;-70
2023/07/29 08:52:38;;;;;;;;;15.80;15.20;;;;;26.06;34.83;99086.16;5057807;28;8847;-71
2023/07/29 08:55:07;;;;;;;;;14.80;14.40;;;;;26.08;34.54;99090.41;5069325;28;8850;-70
2023/07/29 08:57:38;;;;;;;;;13.00;13.00;;;;;26.06;34.26;99084.31;5051090;28;8850;-71
2023/07/29 09:00:09;;;;;;;;;15.20;13.60;;;;;26.38;34.01;99085.81;5083222;28;8866;-72
2023/07/29 09:02:38;;;;;;;;;17.00;16.20;;;;;26.64;34.26;99075.25;5021225;28;8852;-72
2023/07/29 09:05:07;;;;;;;;;13.60;13.60;;;;;26.96;34.20;99071.28;5069512;28;8912;-72
2023/07/29 09:07:38;;;;;;;;;15.40;15.40;;;;;27.21;34.50;99077.00;5034587;28;9669;-73
2023/07/29 09:10:10;;;;;;;;;14.60;14.60;;;;;27.44;32.80;99075.59;5068396;28;9031;-71
2023/07/29 09:12:41;;;;;;;;;18.00;15.80;;;;;27.64;32.89;99070.91;5068978;28;8896;-71
2023/07/29 09:15:10;;;;;;;;;11.80;11.80;;;;;27.77;32.99;99075.09;5069541;28;8858;-71
2023/07/29 09:17:42;;;;;;;;;15.20;14.20;;;;;27.73;31.83;99073.72;5088896;28;8864;-71
2023/07/29 09:20:11;;;;;;;;;11.40;11.40;;;;;27.11;32.77;99073.53;5089515;28;8852;-72
2023/07/29 09:22:40;;;;;;;;;23.00;22.80;;;;;26.52;32.68;99070.19;5069562;28;8954;-71
2023/07/29 09:25:09;;;;;;;;;12.60;12.60;;;;;26.18;32.55;99071.50;5069111;28;8863;-71
2023/07/29 09:27:39;;;;;;;;;12.00;12.00;;;;;25.85;33.56;99073.66;5068885;28;8893;-73
2023/07/29 09:30:16;;;;;;;;;11.00;11.00;;;;;25.95;33.59;99062.06;5067314;28;8854;-71
2023/07/29 09:32:56;;;;;;;;;14.60;13.20;;;;;26.12;33.48;99063.19;5039219;28;8860;-74
2023/07/29 09:35:28;;;;;;;;;8.40;8.40;;;;;26.69;33.13;99069.44;5065973;28;8843;-74
2023/07/29 09:37:57;;;;;;;;;12.80;12.40;;;;;26.79;32.65;99064.81;5067973;28;8851;-74
2023/07/29 09:40:26;;;;;;;;;17.60;16.00;;;;;27.18;32.33;99061.97;5068525;28;8842;-73
2023/07/29 09:42:56;;;;;;;;;13.20;13.20;;;;;27.63;32.00;99061.13;5068325;28;8874;-74
2023/07/29 09:45:27;;;;;;;;;16.80;14.80;;;;;27.97;31.09;99056.88;5068394;28;8882;-73
2023/07/29 09:47:58;;;;;;;;;12.20;11.80;;;;;28.26;30.86;99059.31;5064095;28;8857;-72
2023/07/29 09:50:28;;;;;;;;;17.00;17.00;;;;;28.52;29.88;99061.16;5069394;28;8844;-78
2023/07/29 09:52:59;;;;;;;;;14.60;14.20;;;;;28.12;30.10;99057.16;5050268;28;8860;-78
2023/07/29 09:55:28;;;;;;;;;15.00;15.00;;;;;28.52;30.15;99064.72;5061207;28;8898;-74
2023/07/29 09:58:00;;;;;;;;;13.20;12.00;;;;;28.85;29.54;99062.19;5068579;28;8858;-77
2023/07/29 10:00:31;;;;;;;;;9.20;9.20;;;;;28.94;29.19;99061.22;5069027;28;8835;-76
2023/07/29 10:03:01;;;;;;;;;10.40;10.40;;;;;29.19;29.88;99058.63;5068260;28;9681;-77
2023/07/29 10:05:30;;;;;;;;;11.40;9.60;;;;;29.32;29.54;99056.28;5068761;28;8846;-76
2023/07/29 10:08:00;;;;;;;;;10.60;10.60;;;;;29.44;30.05;99059.53;5077633;28;8863;-75
2023/07/29 10:10:29;;;;;;;;;10.40;10.00;;;;;29.27;29.26;99061.34;5018609;28;8844;-78
2023/07/29 10:12:59;;;;;;;;;11.00;11.00;;;;;28.44;29.76;99052.97;5055176;28;9007;-75
2023/07/29 10:15:28;;;;;;;;;10.40;10.40;;;;;28.72;29.42;99054.50;5046354;28;8891;-74
2023/07/29 10:18:00;;;;;;;;;8.20;8.20;;;;;27.93;30.26;99047.34;5060559;28;8931;-74
2023/07/29 10:20:31;;;;;;;;;10.20;10.20;;;;;28.45;30.05;99050.13;5021057;28;8851;-77
2023/07/29 10:23:01;;;;;;;;;12.60;10.60;;;;;28.80;29.92;99048.28;5029989;28;8893;-75
2023/07/29 10:25:38;;;;;;;;;12.40;10.20;;;;;29.14;29.72;99053.69;5005818;28;9597;-75
2023/07/29 10:28:09;;;;;;;;;10.20;10.20;;;;;29.07;28.61;99054.50;5053192;28;8966;-75
2023/07/29 10:30:38;;;;;;;;;10.40;10.40;;;;;28.60;29.68;99047.69;5037962;28;9028;-77
2023/07/29 10:33:10;;;;;;;;;13.80;13.20;;;;;28.82;29.61;99053.53;5065025;28;8852;-76
2023/07/29 10:35:40;;;;;;;;;12.20;11.20;;;;;28.46;30.56;99043.72;5068046;28;8908;-75
2023/07/29 10:38:09;;;;;;;;;16.00;14.40;;;;;28.16;31.09;99045.06;5067770;28;8839;-75
2023/07/29 10:40:45;;;;;;;;;10.20;10.20;;;;;28.79;30.15;99043.91;5055398;28;8851;-76
2023/07/29 10:43:20;;;;;;;;;14.60;14.00;;;;;28.50;30.38;99049.63;5068790;28;8962;-78
2023/07/29 10:45:49;;;;;;;;;12.20;11.40;;;;;27.59;31.63;99046.25;5068159;28;8873;-77
2023/07/29 10:48:43;;;;;;;;;14.40;14.20;;;;;27.61;31.97;99048.78;5038669;28;8842;-76
2023/07/29 10:51:30;;;;;;;;;19.80;18.00;;;;;28.34;31.71;99048.53;5066418;28;9041;-76
2023/07/29 10:54:01;;;;;;;;;9.00;9.00;;;;;28.75;30.42;99043.38;5067487;28;8846;-75
2023/07/29 10:56:32;;;;;;;;;13.00;11.40;;;;;28.29;30.92;99042.78;5048689;28;8962;-77
2023/07/29 10:59:33;;;;;;;;;16.00;15.60;;;;;28.68;31.02;99039.63;5066307;28;8835;-76
2023/07/29 11:02:02;;;;;;;;;15.80;15.80;;;;;28.92;30.09;99038.88;5067451;28;9096;-76
2023/07/29 11:04:33;;;;;;;;;11.80;11.80;;;;;29.43;30.36;99033.47;5067390;28;8878;-76
2023/07/29 11:07:29;;;;;;;;;11.80;11.80;;;;;29.74;29.64;99035.56;5066247;28;8862;-78
2023/07/29 11:10:04;;;;;;;;;16.20;14.80;;;;;29.55;29.01;99025.88;5003299;28;8870;-75
2023/07/29 11:12:42;;;;;;;;;11.00;11.00;;;;;29.98;28.78;99018.47;5005290;28;9743;-78
2023/07/29 11:15:22;;;;;;;;;14.40;13.60;;;;;30.40;28.23;99028.22;4972734;28;8867;-78
2023/07/29 11:17:53;;;;;;;;;13.80;13.60;;;;;30.72;28.28;99024.59;5005349;28;8870;-78
2023/07/29 11:20:25;;;;;;;;;12.40;11.40;;;;;31.02;27.16;99010.41;4999283;28;8842;-80
2023/07/29 11:22:54;;;;;;;;;20.20;19.60;;;;;31.30;28.00;99010.78;5005637;28;8870;-79
2023/07/29 11:25:25;;;;;;;;;10.20;10.20;;;;;31.10;26.92;99011.16;5005614;28;8875;-75
2023/07/29 11:27:57;;;;;;;;;9.60;9.60;;;;;30.72;27.26;99005.59;5006820;28;8854;-75
2023/07/29 11:30:27;;;;;;;;;22.80;21.40;;;;;31.20;27.44;99012.84;4987648;28;8853;-78
2023/07/29 11:32:56;;;;;;;;;16.40;16.40;;;;;31.36;27.37;99001.88;4955777;28;9083;-76
2023/07/29 11:35:27;;;;;;;;;17.00;17.00;;;;;31.51;27.33;99004.66;5007275;28;8881;-76
2023/07/29 11:37:57;;;;;;;;;14.80;14.20;;;;;31.64;26.87;99002.19;5008311;28;8912;-74
2023/07/29 11:40:26;;;;;;;;;15.60;15.60;;;;;31.78;26.48;99002.44;5018213;28;8861;-77